createdAt,value
2017-09-18T00:02:12.647Z,69.00
2017-09-18T00:04:39.840Z,69.00
2017-09-18T00:07:07.904Z,69.10
2017-09-18T00:09:36.008Z,69.00
2017-09-18T00:12:03.923Z,69.10
2017-09-18T00:14:31.839Z,69.00
2017-09-18T00:16:59.758Z,69.60
2017-09-18T00:19:26.908Z,69.00
2017-09-18T00:21:54.096Z,69.00
2017-09-18T00:24:21.248Z,69.10
2017-09-18T00:26:48.396Z,69.00
2017-09-18T00:29:16.457Z,69.60
2017-09-18T00:31:43.603Z,69.00
2017-09-18T00:34:10.787Z,69.10
2017-09-18T00:36:39.491Z,69.60
2017-09-18T00:39:08.394Z,69.20
2017-09-18T00:41:35.535Z,69.20
2017-09-18T00:44:04.253Z,69.10
2017-09-18T00:46:31.436Z,69.70
2017-09-18T00:48:59.380Z,69.10
2017-09-18T00:51:26.558Z,69.10
2017-09-18T00:53:53.708Z,69.10
2017-09-18T00:56:20.887Z,69.10
2017-09-18T00:58:49.654Z,69.10
2017-09-18T01:01:17.584Z,69.10
2017-09-18T01:03:45.490Z,69.10
2017-09-18T01:06:13.270Z,69.20
2017-09-18T01:08:40.423Z,69.30
2017-09-18T01:11:08.469Z,69.20
2017-09-18T01:13:35.612Z,69.30
2017-09-18T01:16:03.682Z,69.30
2017-09-18T01:18:30.836Z,69.10
2017-09-18T01:20:58.794Z,69.20
2017-09-18T01:23:26.732Z,69.20
2017-09-18T01:25:54.675Z,69.30
2017-09-18T01:28:22.736Z,69.30
2017-09-18T01:30:50.832Z,69.30
2017-09-18T01:33:18.744Z,69.30
2017-09-18T01:35:46.143Z,69.20
2017-09-18T01:38:14.119Z,69.50
2017-09-18T01:40:41.267Z,69.20
2017-09-18T01:43:08.415Z,69.20
2017-09-18T01:45:36.349Z,69.30
2017-09-18T01:48:04.384Z,69.20
2017-09-18T01:50:32.343Z,69.40
2017-09-18T01:53:00.258Z,69.50
2017-09-18T01:55:28.204Z,69.30
2017-09-18T01:57:55.384Z,69.20
2017-09-18T02:00:23.343Z,69.50
2017-09-18T02:02:51.427Z,69.40
2017-09-18T02:05:18.575Z,69.00
2017-09-18T02:07:46.651Z,69.40
2017-09-18T02:10:13.827Z,69.20
2017-09-18T02:12:40.972Z,69.30
2017-09-18T02:15:08.148Z,69.30
2017-09-18T02:17:36.091Z,69.40
2017-09-18T02:20:03.243Z,69.40
2017-09-18T02:22:31.195Z,69.40
2017-09-18T02:24:59.159Z,69.40
2017-09-18T02:27:26.359Z,69.40
2017-09-18T02:29:54.291Z,70.10
2017-09-18T02:32:21.449Z,69.50
2017-09-18T02:34:48.595Z,69.60
2017-09-18T02:37:15.740Z,69.50
2017-09-18T02:39:43.859Z,69.40
2017-09-18T02:42:11.807Z,69.70
2017-09-18T02:44:39.769Z,69.70
2017-09-18T02:47:06.918Z,69.60
2017-09-18T02:49:34.094Z,69.70
2017-09-18T02:52:01.289Z,69.60
2017-09-18T02:54:28.439Z,69.60
2017-09-18T02:56:55.587Z,69.70
2017-09-18T02:59:22.742Z,69.80
2017-09-18T03:01:49.888Z,69.80
2017-09-18T03:04:17.972Z,69.70
2017-09-18T03:06:45.117Z,69.80
2017-09-18T03:09:12.307Z,69.80
2017-09-18T03:11:40.240Z,69.70
2017-09-18T03:14:07.401Z,69.80
2017-09-18T03:16:35.383Z,69.90
2017-09-18T03:19:02.527Z,70.00
2017-09-18T03:21:30.443Z,70.00
2017-09-18T03:23:58.387Z,69.80
2017-09-18T03:26:25.526Z,69.60
2017-09-18T03:28:53.608Z,70.00
2017-09-18T03:31:20.753Z,69.80
2017-09-18T03:33:48.748Z,70.00
2017-09-18T03:36:15.950Z,69.80
2017-09-18T03:38:43.863Z,69.90
2017-09-18T03:41:11.007Z,70.10
2017-09-18T03:43:38.954Z,70.30
2017-09-18T03:46:06.136Z,70.10
2017-09-18T03:48:34.204Z,70.20
2017-09-18T03:51:02.336Z,69.90
2017-09-18T03:53:29.494Z,70.10
2017-09-18T03:55:57.431Z,70.30
2017-09-18T03:58:26.118Z,70.10
2017-09-18T04:00:54.943Z,70.00
2017-09-18T04:03:23.045Z,70.00
2017-09-18T04:05:51.117Z,70.10
2017-09-18T04:08:18.263Z,70.30
2017-09-18T04:10:45.416Z,70.10
2017-09-18T04:13:13.491Z,70.10
2017-09-18T04:15:41.478Z,70.20
2017-09-18T04:18:08.627Z,70.20
2017-09-18T04:20:36.697Z,70.50
2017-09-18T04:23:03.839Z,70.50
2017-09-18T04:25:31.778Z,70.60
2017-09-18T04:27:59.722Z,70.60
2017-09-18T04:30:27.700Z,70.60
2017-09-18T04:32:54.851Z,70.30
2017-09-18T04:35:22.935Z,70.20
2017-09-18T04:37:50.139Z,70.50
2017-09-18T04:40:17.280Z,70.00
2017-09-18T04:42:44.430Z,70.40
2017-09-18T04:45:11.575Z,70.60
2017-09-18T04:47:38.767Z,69.80
2017-09-18T04:50:07.612Z,69.80
2017-09-18T04:52:34.755Z,69.80
2017-09-18T04:55:02.699Z,69.70
2017-09-18T04:57:29.847Z,70.00
2017-09-18T04:59:57.054Z,70.20
2017-09-18T05:02:25.167Z,69.90
2017-09-18T05:04:52.316Z,69.70
2017-09-18T05:07:19.461Z,69.70
2017-09-18T05:09:47.284Z,70.00
2017-09-18T05:12:14.434Z,69.40
2017-09-18T05:14:41.620Z,70.10
2017-09-18T05:17:10.335Z,70.00
2017-09-18T05:19:37.480Z,70.00
2017-09-18T05:22:04.662Z,70.30
2017-09-18T05:24:31.807Z,70.20
2017-09-18T05:26:58.997Z,69.80
2017-09-18T05:29:26.159Z,70.20
2017-09-18T05:31:54.084Z,69.80
2017-09-18T05:34:22.139Z,70.30
2017-09-18T05:36:50.349Z,69.80
2017-09-18T05:39:18.318Z,69.80
2017-09-18T05:41:45.493Z,69.70
2017-09-18T05:44:13.449Z,69.40
2017-09-18T05:46:40.599Z,69.60
2017-09-18T05:49:07.748Z,69.90
2017-09-18T05:51:35.692Z,69.30
2017-09-18T05:54:02.920Z,69.40
2017-09-18T05:56:30.876Z,69.50
2017-09-18T05:58:58.792Z,69.70
2017-09-18T06:01:25.945Z,69.70
2017-09-18T06:03:53.236Z,69.90
2017-09-18T06:06:21.970Z,70.30
2017-09-18T06:08:49.117Z,69.80
2017-09-18T06:11:17.211Z,69.70
2017-09-18T06:13:44.359Z,69.90
2017-09-18T06:16:12.263Z,69.40
2017-09-18T06:18:39.414Z,69.40
2017-09-18T06:21:06.555Z,69.60
2017-09-18T06:23:33.699Z,69.80
2017-09-18T06:26:00.847Z,70.00
2017-09-18T06:28:28.035Z,69.40
2017-09-18T06:30:55.952Z,69.80
2017-09-18T06:33:23.104Z,69.70
2017-09-18T06:35:51.031Z,69.50
2017-09-18T06:38:18.984Z,69.40
2017-09-18T06:40:47.712Z,69.40
2017-09-18T06:43:15.524Z,69.40
2017-09-18T06:45:42.663Z,69.60
2017-09-18T06:48:10.736Z,69.80
2017-09-18T06:50:38.798Z,69.40
2017-09-18T06:53:05.945Z,69.60
2017-09-18T06:55:33.090Z,69.80
2017-09-18T06:58:00.237Z,69.70
2017-09-18T07:00:27.384Z,69.90
2017-09-18T07:02:54.538Z,70.40
2017-09-18T07:05:21.692Z,70.00
2017-09-18T07:07:48.842Z,69.50
2017-09-18T07:10:15.994Z,69.60
2017-09-18T07:12:43.192Z,69.90
2017-09-18T07:15:11.104Z,69.70
2017-09-18T07:17:38.258Z,69.50
2017-09-18T07:20:05.410Z,70.10
2017-09-18T07:22:32.557Z,70.00
2017-09-18T07:25:00.639Z,70.00
2017-09-18T07:27:27.786Z,69.60
2017-09-18T07:29:54.963Z,69.10
2017-09-18T07:32:22.115Z,70.30
2017-09-18T07:34:49.295Z,69.70
2017-09-18T07:37:17.979Z,69.50
2017-09-18T07:39:45.904Z,69.00
2017-09-18T07:42:13.814Z,69.30
2017-09-18T07:44:41.007Z,69.20
2017-09-18T07:47:08.151Z,69.70
2017-09-18T07:49:35.295Z,68.80
2017-09-18T07:52:03.279Z,68.80
2017-09-18T07:54:30.430Z,68.60
2017-09-18T07:56:57.578Z,68.40
2017-09-18T07:59:25.517Z,68.40
2017-09-18T08:01:53.458Z,68.90
2017-09-18T08:04:22.192Z,68.40
2017-09-18T08:06:49.334Z,68.40
2017-09-18T08:09:17.254Z,68.60
2017-09-18T08:11:44.443Z,68.50
2017-09-18T08:14:12.357Z,68.60
2017-09-18T08:16:39.503Z,68.60
2017-09-18T08:19:07.467Z,68.60
2017-09-18T08:21:34.612Z,68.60
2017-09-18T08:24:01.791Z,68.60
2017-09-18T08:26:28.947Z,68.70
2017-09-18T08:28:56.099Z,68.60
2017-09-18T08:31:24.047Z,68.70
2017-09-18T08:33:51.204Z,68.70
2017-09-18T08:36:18.347Z,68.80
2017-09-18T08:38:45.490Z,68.80
2017-09-18T08:41:12.688Z,68.90
2017-09-18T08:43:39.834Z,68.90
2017-09-18T08:46:06.971Z,69.00
2017-09-18T08:48:35.048Z,69.00
2017-09-18T08:51:02.960Z,69.00
2017-09-18T08:53:31.683Z,68.90
2017-09-18T08:55:58.823Z,68.90
2017-09-18T08:58:26.364Z,68.90
2017-09-18T09:00:54.322Z,69.00
2017-09-18T09:03:21.468Z,69.00
2017-09-18T09:05:48.628Z,69.00
2017-09-18T09:08:16.545Z,69.10
2017-09-18T09:10:43.706Z,69.00
2017-09-18T09:13:10.884Z,69.00
2017-09-18T09:15:38.028Z,69.00
2017-09-18T09:18:05.177Z,69.10
2017-09-18T09:20:33.272Z,69.10
2017-09-18T09:23:01.179Z,69.50
2017-09-18T09:25:28.369Z,69.10
2017-09-18T09:27:55.515Z,69.20
2017-09-18T09:30:22.692Z,69.20
2017-09-18T09:32:50.613Z,69.90
2017-09-18T09:35:17.766Z,69.20
2017-09-18T09:37:45.899Z,69.20
2017-09-18T09:40:13.803Z,69.30
2017-09-18T09:42:40.953Z,69.90
2017-09-18T09:45:08.102Z,69.20
2017-09-18T09:47:35.250Z,69.20
2017-09-18T09:50:02.409Z,69.30
2017-09-18T09:52:29.564Z,69.30
2017-09-18T09:54:56.749Z,69.40
2017-09-18T09:57:23.903Z,69.30
2017-09-18T09:59:51.051Z,69.30
2017-09-18T10:02:18.196Z,69.40
2017-09-18T10:04:45.345Z,69.40
2017-09-18T10:07:12.536Z,69.40
2017-09-18T10:09:40.447Z,69.50
2017-09-18T10:12:07.590Z,69.50
2017-09-18T10:14:34.738Z,69.40
2017-09-18T10:17:01.891Z,69.40
2017-09-18T10:19:29.049Z,69.40
2017-09-18T10:21:56.231Z,69.50
2017-09-18T10:24:23.415Z,69.60
2017-09-18T10:26:51.627Z,69.60
2017-09-18T10:29:18.776Z,69.60
2017-09-18T10:31:45.926Z,69.50
2017-09-18T10:34:13.122Z,69.60
2017-09-18T10:36:40.281Z,69.50
2017-09-18T10:39:08.193Z,69.60
2017-09-18T10:41:35.336Z,69.60
2017-09-18T10:44:02.488Z,70.30
2017-09-18T10:46:30.845Z,69.50
2017-09-18T10:48:58.765Z,69.50
2017-09-18T10:51:25.920Z,69.60
2017-09-18T10:53:53.108Z,69.60
2017-09-18T10:56:21.021Z,69.70
2017-09-18T10:58:48.174Z,69.70
2017-09-18T11:01:15.324Z,69.60
2017-09-18T11:03:42.469Z,69.70
2017-09-18T11:06:10.547Z,69.70
2017-09-18T11:08:37.684Z,69.60
2017-09-18T11:11:04.864Z,69.70
2017-09-18T11:13:32.008Z,69.60
2017-09-18T11:15:59.972Z,69.60
2017-09-18T11:18:27.120Z,69.60
2017-09-18T11:20:54.270Z,69.70
2017-09-18T11:23:21.454Z,69.70
2017-09-18T11:25:49.531Z,69.70
2017-09-18T11:28:16.670Z,69.70
2017-09-18T11:30:43.819Z,69.80
2017-09-18T11:33:10.966Z,69.80
2017-09-18T11:35:38.107Z,69.80
2017-09-18T11:38:05.292Z,69.70
2017-09-18T11:40:33.359Z,69.90
2017-09-18T11:43:00.499Z,69.80
2017-09-18T11:45:27.639Z,69.60
2017-09-18T11:47:54.905Z,69.30
2017-09-18T11:50:22.871Z,68.70
2017-09-18T11:52:50.010Z,68.30
2017-09-18T11:55:17.156Z,68.20
2017-09-18T11:57:45.226Z,67.90
2017-09-18T12:00:12.380Z,67.40
2017-09-18T12:02:39.555Z,67.60
2017-09-18T12:05:06.739Z,67.50
2017-09-18T12:07:34.652Z,67.80
2017-09-18T12:10:01.831Z,67.70
2017-09-18T12:12:29.632Z,68.00
2017-09-18T12:14:56.814Z,67.90
2017-09-18T12:17:24.000Z,68.00
2017-09-18T12:19:51.143Z,68.00
2017-09-18T12:22:18.288Z,68.20
2017-09-18T12:24:46.271Z,68.20
2017-09-18T12:27:14.328Z,68.40
2017-09-18T12:29:41.474Z,68.30
2017-09-18T12:32:08.620Z,68.40
2017-09-18T12:34:35.773Z,69.10
2017-09-18T12:37:04.619Z,68.40
2017-09-18T12:39:32.528Z,68.40
2017-09-18T12:42:00.693Z,68.40
2017-09-18T12:44:27.835Z,68.50
2017-09-18T12:46:55.742Z,68.50
2017-09-18T12:49:23.839Z,68.40
2017-09-18T12:51:51.768Z,68.50
2017-09-18T12:54:19.844Z,68.50
2017-09-18T12:56:46.990Z,68.40
2017-09-18T12:59:14.131Z,68.50
2017-09-18T13:01:41.282Z,68.70
2017-09-18T13:04:08.440Z,68.60
2017-09-18T13:06:36.392Z,68.70
2017-09-18T13:09:03.584Z,68.70
2017-09-18T13:11:31.511Z,68.80
2017-09-18T13:13:58.656Z,68.80
2017-09-18T13:16:25.798Z,68.80
2017-09-18T13:18:52.951Z,68.80
2017-09-18T13:21:20.859Z,68.90
2017-09-18T13:23:48.050Z,68.90
2017-09-18T13:26:15.966Z,69.00
2017-09-18T13:28:43.160Z,69.10
2017-09-18T13:31:11.220Z,69.00
2017-09-18T13:33:38.368Z,69.00
2017-09-18T13:36:05.519Z,69.10
2017-09-18T13:38:32.683Z,69.10
2017-09-18T13:40:59.823Z,69.20
2017-09-18T13:43:27.779Z,69.20
2017-09-18T13:45:54.959Z,69.20
2017-09-18T13:48:22.103Z,69.20
2017-09-18T13:50:49.248Z,69.30
2017-09-18T13:53:16.444Z,69.30
2017-09-18T13:55:43.596Z,69.30
2017-09-18T13:58:11.669Z,69.30
2017-09-18T14:00:38.827Z,69.30
2017-09-18T14:03:06.756Z,69.40
2017-09-18T14:05:33.936Z,69.40
2017-09-18T14:08:02.773Z,69.40
2017-09-18T14:10:29.995Z,69.30
2017-09-18T14:12:57.145Z,70.10
2017-09-18T14:15:25.178Z,69.40
2017-09-18T14:17:52.321Z,69.30
2017-09-18T14:20:19.464Z,69.40
2017-09-18T14:22:46.644Z,69.40
2017-09-18T14:25:14.567Z,69.50
2017-09-18T14:27:41.719Z,69.40
2017-09-18T14:30:08.911Z,69.50
2017-09-18T14:32:36.824Z,69.60
2017-09-18T14:35:03.969Z,69.60
2017-09-18T14:37:31.143Z,69.60
2017-09-18T14:39:58.291Z,69.50
2017-09-18T14:42:25.443Z,69.60
2017-09-18T14:44:53.391Z,69.40
2017-09-18T14:47:20.555Z,69.50
2017-09-18T14:49:47.704Z,69.50
2017-09-18T14:52:14.852Z,69.40
2017-09-18T14:54:42.043Z,69.40
2017-09-18T14:57:09.188Z,69.40
2017-09-18T14:59:37.860Z,69.50
2017-09-18T15:02:06.535Z,69.40
2017-09-18T15:04:33.688Z,69.40
2017-09-18T15:07:00.832Z,69.50
2017-09-18T15:09:27.971Z,70.00
2017-09-18T15:11:55.144Z,69.60
2017-09-18T15:14:22.292Z,69.60
2017-09-18T15:16:50.276Z,69.30
2017-09-18T15:19:17.423Z,69.30
2017-09-18T15:21:45.495Z,69.20
2017-09-18T15:24:12.692Z,69.60
2017-09-18T15:26:40.609Z,70.20
2017-09-18T15:29:08.555Z,70.20
2017-09-18T15:31:36.476Z,68.90
2017-09-18T15:34:03.629Z,69.20
2017-09-18T15:36:31.587Z,69.00
2017-09-18T15:38:58.728Z,68.90
2017-09-18T15:41:25.909Z,69.10
2017-09-18T15:43:53.060Z,69.00
2017-09-18T15:46:20.211Z,68.70
2017-09-18T15:48:47.399Z,69.10
2017-09-18T15:51:14.543Z,69.10
2017-09-18T15:53:41.690Z,69.10
2017-09-18T15:56:09.599Z,69.70
2017-09-18T15:58:36.755Z,69.60
2017-09-18T16:01:03.948Z,70.00
2017-09-18T16:03:32.780Z,69.50
2017-09-18T16:06:00.845Z,69.50
2017-09-18T16:08:27.991Z,68.80
2017-09-18T16:10:55.145Z,69.00
2017-09-18T16:13:23.109Z,68.90
2017-09-18T16:15:51.130Z,70.10
2017-09-18T16:18:19.191Z,69.50
2017-09-18T16:20:46.331Z,69.10
2017-09-18T16:23:13.479Z,69.60
2017-09-18T16:25:40.660Z,69.10
2017-09-18T16:28:07.804Z,69.00
2017-09-18T16:30:34.964Z,68.90
2017-09-18T16:33:02.937Z,69.20
2017-09-18T16:35:30.089Z,68.90
2017-09-18T16:38:14.699Z,69.20
2017-09-18T16:40:41.851Z,69.00
2017-09-18T16:43:09.768Z,69.10
2017-09-18T16:45:37.688Z,69.20
2017-09-18T16:48:06.530Z,69.20
2017-09-18T16:50:33.716Z,69.20
2017-09-18T16:53:00.911Z,69.20
2017-09-18T16:55:28.835Z,69.10
2017-09-18T16:57:55.980Z,69.20
2017-09-18T17:00:24.044Z,69.10
2017-09-18T17:02:51.227Z,69.20
2017-09-18T17:05:19.140Z,69.20
2017-09-18T17:07:47.159Z,69.20
2017-09-18T17:10:16.007Z,69.30
2017-09-18T17:12:48.760Z,69.30
2017-09-18T17:15:16.840Z,69.30
2017-09-18T17:17:44.975Z,69.30
2017-09-18T17:20:12.920Z,69.40
2017-09-18T17:22:40.060Z,69.40
2017-09-18T17:25:08.747Z,69.70
2017-09-18T17:27:35.899Z,69.70
2017-09-18T17:30:03.049Z,70.00
2017-09-18T17:32:31.009Z,69.90
2017-09-18T17:34:58.163Z,69.80
2017-09-18T17:37:25.338Z,69.80
2017-09-18T17:39:52.486Z,69.80
2017-09-18T17:42:20.576Z,70.00
2017-09-18T17:44:47.731Z,69.90
2017-09-18T17:47:14.883Z,69.90
2017-09-18T17:49:42.881Z,70.90
2017-09-18T17:52:10.042Z,70.10
2017-09-18T17:54:38.100Z,70.20
2017-09-18T17:57:05.264Z,70.00
2017-09-18T17:59:32.414Z,70.00
2017-09-18T18:01:59.655Z,70.00
2017-09-18T18:04:26.852Z,70.10
2017-09-18T18:06:55.314Z,69.90
2017-09-18T18:09:22.676Z,69.90
2017-09-18T18:11:49.947Z,70.10
2017-09-18T18:14:18.137Z,70.10
2017-09-18T18:16:45.388Z,69.80
2017-09-18T18:19:13.449Z,70.10
2017-09-18T18:21:46.824Z,70.00
2017-09-18T18:24:15.223Z,69.90
2017-09-18T18:26:44.751Z,69.30
2017-09-18T18:29:12.881Z,69.80
2017-09-18T18:31:41.119Z,69.80
2017-09-18T18:34:09.137Z,70.10
2017-09-18T18:36:37.274Z,69.70
2017-09-18T18:39:06.509Z,69.50
2017-09-18T18:41:33.655Z,69.60
2017-09-18T18:44:00.810Z,69.50
2017-09-18T18:46:28.732Z,69.50
2017-09-18T18:48:56.649Z,69.20
2017-09-18T18:51:23.808Z,69.60
2017-09-18T18:53:51.004Z,69.70
2017-09-18T18:56:19.829Z,69.60
2017-09-18T18:58:46.983Z,69.60
2017-09-18T19:01:14.131Z,69.70
2017-09-18T19:03:41.332Z,69.40
2017-09-18T19:06:08.564Z,69.60
2017-09-18T19:08:35.715Z,69.60
2017-09-18T19:11:02.863Z,69.60
2017-09-18T19:13:30.856Z,69.70
2017-09-18T19:15:58.787Z,69.60
2017-09-18T19:18:26.775Z,69.50
2017-09-18T19:20:53.928Z,69.50
2017-09-18T19:23:22.645Z,69.60
2017-09-18T19:25:49.799Z,69.60
2017-09-18T19:28:17.862Z,69.50
2017-09-18T19:30:45.947Z,69.50
2017-09-18T19:33:14.771Z,70.30
2017-09-18T19:35:41.919Z,69.60
2017-09-18T19:38:09.075Z,69.50
2017-09-18T19:40:36.227Z,69.70
2017-09-18T19:43:03.403Z,69.50
2017-09-18T19:45:30.555Z,69.60
2017-09-18T19:47:58.640Z,69.40
2017-09-18T19:50:26.687Z,69.50
2017-09-18T19:52:53.883Z,69.40
2017-09-18T19:55:21.040Z,69.60
2017-09-18T19:57:48.956Z,69.70
2017-09-18T20:00:16.505Z,69.50
2017-09-18T20:02:43.671Z,69.60
2017-09-18T20:05:10.847Z,69.40
2017-09-18T20:07:37.995Z,69.60
2017-09-18T20:10:05.144Z,69.70
2017-09-18T20:12:32.335Z,69.70
2017-09-18T20:15:00.248Z,69.70
2017-09-18T20:17:28.215Z,69.60
2017-09-18T20:19:56.131Z,69.70
2017-09-18T20:22:23.270Z,69.60
2017-09-18T20:24:50.463Z,69.70
2017-09-18T20:27:17.610Z,69.50
2017-09-18T20:29:44.756Z,69.80
2017-09-18T20:32:12.716Z,69.80
2017-09-18T20:34:40.632Z,69.70
2017-09-18T20:37:07.779Z,69.70
2017-09-18T20:39:34.929Z,69.70
2017-09-18T20:42:03.004Z,69.80
2017-09-18T20:44:31.064Z,69.80
2017-09-18T20:46:59.207Z,69.70
2017-09-18T20:49:28.142Z,69.80
2017-09-18T20:51:56.059Z,69.80
2017-09-18T20:54:24.135Z,69.90
2017-09-18T20:56:53.807Z,70.00
2017-09-18T20:59:21.765Z,69.80
2017-09-18T21:01:48.914Z,69.70
2017-09-18T21:04:16.096Z,69.60
2017-09-18T21:06:43.854Z,69.90
2017-09-18T21:09:11.049Z,69.80
2017-09-18T21:11:38.224Z,69.80
2017-09-18T21:14:05.397Z,69.50
2017-09-18T21:16:32.562Z,69.40
2017-09-18T21:18:59.775Z,69.60
2017-09-18T21:21:26.968Z,69.90
2017-09-18T21:23:54.125Z,69.70
2017-09-18T21:26:21.315Z,69.50
2017-09-18T21:28:49.224Z,69.10
2017-09-18T21:31:16.371Z,69.10
2017-09-18T21:33:44.284Z,69.50
2017-09-18T21:36:13.107Z,70.30
2017-09-18T21:38:40.298Z,70.20
2017-09-18T21:41:07.440Z,69.50
2017-09-18T21:43:34.588Z,69.40
2017-09-18T21:46:01.742Z,69.20
2017-09-18T21:48:28.887Z,69.10
2017-09-18T21:50:56.034Z,69.00
2017-09-18T21:53:23.212Z,69.60
2017-09-18T21:55:50.839Z,69.80
2017-09-18T21:58:17.983Z,69.40
2017-09-18T22:00:46.890Z,69.30
2017-09-18T22:03:14.110Z,69.00
2017-09-18T22:05:42.025Z,68.90
2017-09-18T22:08:09.208Z,68.90
2017-09-18T22:10:36.404Z,68.80
2017-09-18T22:13:03.552Z,68.70
2017-09-18T22:15:30.699Z,68.80
2017-09-18T22:17:57.844Z,68.90
2017-09-18T22:20:24.995Z,68.80
2017-09-18T22:22:53.107Z,68.90
2017-09-18T22:25:21.156Z,68.80
2017-09-18T22:27:48.331Z,68.80
2017-09-18T22:30:16.290Z,68.70
2017-09-18T22:32:43.441Z,68.80
2017-09-18T22:35:10.619Z,68.90
2017-09-18T22:37:38.659Z,68.70
2017-09-18T22:40:05.838Z,68.90
2017-09-18T22:42:32.987Z,68.80
2017-09-18T22:45:01.109Z,68.80
2017-09-18T22:47:29.932Z,69.00
2017-09-18T22:49:58.027Z,69.00
2017-09-18T22:52:26.085Z,69.80
2017-09-18T22:54:53.228Z,69.20
2017-09-18T22:57:20.380Z,69.50
2017-09-18T22:59:47.529Z,69.50
2017-09-18T23:02:15.605Z,69.50
2017-09-18T23:04:42.799Z,69.80
2017-09-18T23:07:09.950Z,69.70
2017-09-18T23:09:38.089Z,70.50
2017-09-18T23:12:05.232Z,69.90
2017-09-18T23:14:32.416Z,70.10
2017-09-18T23:16:59.596Z,69.80
2017-09-18T23:19:28.389Z,70.30
2017-09-18T23:21:56.343Z,70.10
2017-09-18T23:24:24.259Z,70.30
2017-09-18T23:26:51.399Z,70.30
2017-09-18T23:29:18.547Z,70.50
2017-09-18T23:31:45.741Z,70.60
2017-09-18T23:34:12.919Z,70.40
2017-09-18T23:36:40.849Z,70.50
2017-09-18T23:39:08.024Z,70.10
2017-09-18T23:41:35.200Z,70.30
2017-09-18T23:44:03.115Z,70.30
2017-09-18T23:46:30.304Z,70.30
2017-09-18T23:48:57.447Z,70.10
2017-09-18T23:51:25.488Z,70.00
2017-09-18T23:53:52.630Z,70.10
2017-09-18T23:56:19.812Z,70.00
2017-09-18T23:58:46.960Z,70.10
